sensor_id;sensor_type;location;lat;lon;timestamp;P1;durP1;ratioP1;P2;durP2;ratioP2
74679;SDS011;63211;48.548;2.704;2023-09-12T00:00:05;2.80;;;1.77;;
74679;SDS011;63211;48.548;2.704;2023-09-12T00:02:32;2.50;;;1.50;;
74679;SDS011;63211;48.548;2.704;2023-09-12T00:04:59;3.05;;;1.60;;
74679;SDS011;63211;48.548;2.704;2023-09-12T00:07:25;2.60;;;1.73;;
74679;SDS011;63211;48.548;2.704;2023-09-12T00:09:52;3.20;;;1.60;;
74679;SDS011;63211;48.548;2.704;2023-09-12T00:12:21;3.00;;;1.83;;
74679;SDS011;63211;48.548;2.704;2023-09-12T00:14:49;3.45;;;1.63;;
74679;SDS011;63211;48.548;2.704;2023-09-12T00:17:18;2.63;;;1.60;;
74679;SDS011;63211;48.548;2.704;2023-09-12T00:19:44;3.60;;;1.75;;
74679;SDS011;63211;48.548;2.704;2023-09-12T00:22:11;2.22;;;1.50;;
74679;SDS011;63211;48.548;2.704;2023-09-12T00:24:37;3.47;;;1.30;;
74679;SDS011;63211;48.548;2.704;2023-09-12T00:27:04;2.60;;;1.27;;
74679;SDS011;63211;48.548;2.704;2023-09-12T00:29:31;1.92;;;1.35;;
74679;SDS011;63211;48.548;2.704;2023-09-12T00:31:57;2.08;;;1.40;;
74679;SDS011;63211;48.548;2.704;2023-09-12T00:34:26;3.38;;;1.70;;
74679;SDS011;63211;48.548;2.704;2023-09-12T00:36:52;2.28;;;1.60;;
74679;SDS011;63211;48.548;2.704;2023-09-12T00:39:19;2.70;;;1.48;;
74679;SDS011;63211;48.548;2.704;2023-09-12T00:41:45;2.58;;;1.40;;
74679;SDS011;63211;48.548;2.704;2023-09-12T00:44:12;2.53;;;1.35;;
74679;SDS011;63211;48.548;2.704;2023-09-12T00:46:39;2.10;;;1.27;;
74679;SDS011;63211;48.548;2.704;2023-09-12T00:49:06;2.05;;;1.60;;
74679;SDS011;63211;48.548;2.704;2023-09-12T00:51:35;2.30;;;1.20;;
74679;SDS011;63211;48.548;2.704;2023-09-12T00:54:03;2.72;;;1.50;;
74679;SDS011;63211;48.548;2.704;2023-09-12T00:56:30;1.85;;;1.40;;
74679;SDS011;63211;48.548;2.704;2023-09-12T00:58:57;2.47;;;1.30;;
74679;SDS011;63211;48.548;2.704;2023-09-12T01:01:24;1.98;;;1.20;;
74679;SDS011;63211;48.548;2.704;2023-09-12T01:03:51;2.22;;;1.40;;
74679;SDS011;63211;48.548;2.704;2023-09-12T01:06:19;1.80;;;1.30;;
74679;SDS011;63211;48.548;2.704;2023-09-12T01:08:49;2.38;;;1.63;;
74679;SDS011;63211;48.548;2.704;2023-09-12T01:11:15;2.08;;;1.83;;
74679;SDS011;63211;48.548;2.704;2023-09-12T01:13:43;2.00;;;1.30;;
74679;SDS011;63211;48.548;2.704;2023-09-12T01:16:10;1.38;;;1.02;;
74679;SDS011;63211;48.548;2.704;2023-09-12T01:18:36;2.53;;;1.35;;
74679;SDS011;63211;48.548;2.704;2023-09-12T01:24:13;2.78;;;1.30;;
74679;SDS011;63211;48.548;2.704;2023-09-12T01:26:56;2.15;;;1.20;;
74679;SDS011;63211;48.548;2.704;2023-09-12T01:29:32;1.60;;;1.08;;
74679;SDS011;63211;48.548;2.704;2023-09-12T01:32:01;2.25;;;1.40;;
74679;SDS011;63211;48.548;2.704;2023-09-12T01:34:29;1.90;;;1.02;;
74679;SDS011;63211;48.548;2.704;2023-09-12T01:36:56;3.03;;;1.35;;
74679;SDS011;63211;48.548;2.704;2023-09-12T01:39:22;2.08;;;1.08;;
74679;SDS011;63211;48.548;2.704;2023-09-12T01:41:49;3.67;;;1.30;;
74679;SDS011;63211;48.548;2.704;2023-09-12T01:44:18;1.85;;;1.20;;
74679;SDS011;63211;48.548;2.704;2023-09-12T01:46:51;1.85;;;1.10;;
74679;SDS011;63211;48.548;2.704;2023-09-12T01:49:20;1.70;;;1.10;;
74679;SDS011;63211;48.548;2.704;2023-09-12T01:51:50;1.60;;;1.00;;
74679;SDS011;63211;48.548;2.704;2023-09-12T01:54:18;1.60;;;1.00;;
74679;SDS011;63211;48.548;2.704;2023-09-12T01:56:46;1.67;;;0.93;;
74679;SDS011;63211;48.548;2.704;2023-09-12T01:59:13;2.28;;;1.20;;
74679;SDS011;63211;48.548;2.704;2023-09-12T02:01:40;1.58;;;1.00;;
74679;SDS011;63211;48.548;2.704;2023-09-12T02:04:09;1.85;;;1.23;;
74679;SDS011;63211;48.548;2.704;2023-09-12T02:06:36;1.05;;;0.80;;
74679;SDS011;63211;48.548;2.704;2023-09-12T02:09:02;2.15;;;1.20;;
74679;SDS011;63211;48.548;2.704;2023-09-12T02:11:29;2.47;;;1.08;;
74679;SDS011;63211;48.548;2.704;2023-09-12T02:13:55;1.92;;;1.10;;
74679;SDS011;63211;48.548;2.704;2023-09-12T02:16:22;1.52;;;1.20;;
74679;SDS011;63211;48.548;2.704;2023-09-12T02:18:49;1.58;;;1.00;;
74679;SDS011;63211;48.548;2.704;2023-09-12T02:21:17;1.50;;;0.90;;
74679;SDS011;63211;48.548;2.704;2023-09-12T02:23:43;1.65;;;0.88;;
74679;SDS011;63211;48.548;2.704;2023-09-12T02:26:10;1.67;;;0.95;;
74679;SDS011;63211;48.548;2.704;2023-09-12T02:28:36;1.95;;;0.85;;
74679;SDS011;63211;48.548;2.704;2023-09-12T02:31:03;2.42;;;1.13;;
74679;SDS011;63211;48.548;2.704;2023-09-12T02:33:29;2.03;;;0.88;;
74679;SDS011;63211;48.548;2.704;2023-09-12T02:35:56;2.42;;;1.10;;
74679;SDS011;63211;48.548;2.704;2023-09-12T02:38:24;2.28;;;0.95;;
74679;SDS011;63211;48.548;2.704;2023-09-12T02:40:50;1.15;;;0.77;;
74679;SDS011;63211;48.548;2.704;2023-09-12T02:43:17;1.67;;;0.80;;
74679;SDS011;63211;48.548;2.704;2023-09-12T02:45:44;1.73;;;1.15;;
74679;SDS011;63211;48.548;2.704;2023-09-12T02:48:10;1.80;;;0.90;;
74679;SDS011;63211;48.548;2.704;2023-09-12T02:50:37;1.17;;;0.80;;
74679;SDS011;63211;48.548;2.704;2023-09-12T02:53:04;2.10;;;0.80;;
74679;SDS011;63211;48.548;2.704;2023-09-12T02:55:32;1.42;;;0.70;;
74679;SDS011;63211;48.548;2.704;2023-09-12T02:57:59;1.52;;;0.80;;
74679;SDS011;63211;48.548;2.704;2023-09-12T03:00:25;1.10;;;0.70;;
74679;SDS011;63211;48.548;2.704;2023-09-12T03:02:52;1.25;;;0.85;;
74679;SDS011;63211;48.548;2.704;2023-09-12T03:05:19;1.50;;;0.90;;
74679;SDS011;63211;48.548;2.704;2023-09-12T03:07:45;2.22;;;0.80;;
74679;SDS011;63211;48.548;2.704;2023-09-12T03:10:12;2.00;;;0.90;;
74679;SDS011;63211;48.548;2.704;2023-09-12T03:12:40;1.65;;;0.80;;
74679;SDS011;63211;48.548;2.704;2023-09-12T03:15:07;1.30;;;0.90;;
74679;SDS011;63211;48.548;2.704;2023-09-12T03:17:35;0.85;;;0.50;;
74679;SDS011;63211;48.548;2.704;2023-09-12T03:20:01;1.42;;;0.80;;
74679;SDS011;63211;48.548;2.704;2023-09-12T03:22:31;1.35;;;0.70;;
74679;SDS011;63211;48.548;2.704;2023-09-12T03:25:02;1.52;;;0.98;;
74679;SDS011;63211;48.548;2.704;2023-09-12T03:27:29;1.40;;;0.70;;
74679;SDS011;63211;48.548;2.704;2023-09-12T03:29:57;1.52;;;0.88;;
74679;SDS011;63211;48.548;2.704;2023-09-12T03:32:24;1.08;;;0.60;;
74679;SDS011;63211;48.548;2.704;2023-09-12T03:34:50;1.85;;;0.88;;
74679;SDS011;63211;48.548;2.704;2023-09-12T03:37:17;1.23;;;0.73;;
74679;SDS011;63211;48.548;2.704;2023-09-12T03:39:43;1.73;;;0.95;;
74679;SDS011;63211;48.548;2.704;2023-09-12T03:42:10;1.50;;;0.88;;
74679;SDS011;63211;48.548;2.704;2023-09-12T03:44:36;1.55;;;0.85;;
74679;SDS011;63211;48.548;2.704;2023-09-12T03:47:05;1.63;;;1.05;;
74679;SDS011;63211;48.548;2.704;2023-09-12T03:49:31;1.48;;;0.77;;
74679;SDS011;63211;48.548;2.704;2023-09-12T03:51:58;1.08;;;0.60;;
74679;SDS011;63211;48.548;2.704;2023-09-12T03:54:24;1.38;;;0.85;;
74679;SDS011;63211;48.548;2.704;2023-09-12T03:56:51;1.77;;;0.80;;
74679;SDS011;63211;48.548;2.704;2023-09-12T03:59:17;2.13;;;0.73;;
74679;SDS011;63211;48.548;2.704;2023-09-12T04:01:44;1.60;;;0.80;;
74679;SDS011;63211;48.548;2.704;2023-09-12T04:04:12;1.13;;;0.55;;
74679;SDS011;63211;48.548;2.704;2023-09-12T04:06:39;1.45;;;0.60;;
74679;SDS011;63211;48.548;2.704;2023-09-12T04:09:06;1.05;;;0.63;;
74679;SDS011;63211;48.548;2.704;2023-09-12T04:11:33;1.92;;;0.68;;
74679;SDS011;63211;48.548;2.704;2023-09-12T04:13:59;1.15;;;0.68;;
74679;SDS011;63211;48.548;2.704;2023-09-12T04:16:26;1.20;;;0.70;;
74679;SDS011;63211;48.548;2.704;2023-09-12T04:18:52;1.20;;;0.70;;
74679;SDS011;63211;48.548;2.704;2023-09-12T04:21:20;1.13;;;0.73;;
74679;SDS011;63211;48.548;2.704;2023-09-12T04:23:47;2.45;;;0.73;;
74679;SDS011;63211;48.548;2.704;2023-09-12T04:26:15;1.30;;;0.70;;
74679;SDS011;63211;48.548;2.704;2023-09-12T04:28:42;0.75;;;0.50;;
74679;SDS011;63211;48.548;2.704;2023-09-12T04:31:08;2.25;;;0.60;;
74679;SDS011;63211;48.548;2.704;2023-09-12T04:33:35;1.10;;;0.50;;
74679;SDS011;63211;48.548;2.704;2023-09-12T04:36:02;1.45;;;0.63;;
74679;SDS011;63211;48.548;2.704;2023-09-12T04:38:31;1.85;;;0.95;;
74679;SDS011;63211;48.548;2.704;2023-09-12T04:40:59;1.10;;;0.60;;
74679;SDS011;63211;48.548;2.704;2023-09-12T04:43:29;1.17;;;0.70;;
74679;SDS011;63211;48.548;2.704;2023-09-12T04:45:56;1.30;;;0.60;;
74679;SDS011;63211;48.548;2.704;2023-09-12T04:48:23;1.10;;;0.70;;
74679;SDS011;63211;48.548;2.704;2023-09-12T04:50:50;1.08;;;0.80;;
74679;SDS011;63211;48.548;2.704;2023-09-12T04:53:16;1.42;;;0.93;;
74679;SDS011;63211;48.548;2.704;2023-09-12T04:55:44;1.15;;;0.60;;
74679;SDS011;63211;48.548;2.704;2023-09-12T04:58:11;1.45;;;0.70;;
74679;SDS011;63211;48.548;2.704;2023-09-12T05:00:39;0.90;;;0.57;;
74679;SDS011;63211;48.548;2.704;2023-09-12T05:03:06;1.15;;;0.80;;
74679;SDS011;63211;48.548;2.704;2023-09-12T05:05:33;1.08;;;0.80;;
74679;SDS011;63211;48.548;2.704;2023-09-12T05:08:01;1.33;;;0.65;;
74679;SDS011;63211;48.548;2.704;2023-09-12T05:10:28;1.85;;;0.70;;
74679;SDS011;63211;48.548;2.704;2023-09-12T05:12:56;1.80;;;0.80;;
74679;SDS011;63211;48.548;2.704;2023-09-12T05:15:23;1.27;;;0.68;;
74679;SDS011;63211;48.548;2.704;2023-09-12T05:17:49;1.10;;;0.50;;
74679;SDS011;63211;48.548;2.704;2023-09-12T05:20:16;1.10;;;0.60;;
74679;SDS011;63211;48.548;2.704;2023-09-12T05:22:43;1.15;;;0.55;;
74679;SDS011;63211;48.548;2.704;2023-09-12T05:25:09;3.70;;;0.85;;
74679;SDS011;63211;48.548;2.704;2023-09-12T05:27:36;1.50;;;0.88;;
74679;SDS011;63211;48.548;2.704;2023-09-12T05:30:04;1.45;;;0.90;;
74679;SDS011;63211;48.548;2.704;2023-09-12T05:32:32;1.25;;;0.75;;
74679;SDS011;63211;48.548;2.704;2023-09-12T05:34:58;2.42;;;0.88;;
74679;SDS011;63211;48.548;2.704;2023-09-12T05:37:26;2.80;;;0.80;;
74679;SDS011;63211;48.548;2.704;2023-09-12T05:39:53;1.08;;;0.60;;
74679;SDS011;63211;48.548;2.704;2023-09-12T05:42:20;0.93;;;0.60;;
74679;SDS011;63211;48.548;2.704;2023-09-12T05:44:47;2.17;;;1.00;;
74679;SDS011;63211;48.548;2.704;2023-09-12T05:47:16;3.60;;;1.63;;
74679;SDS011;63211;48.548;2.704;2023-09-12T05:49:42;5.30;;;2.00;;
74679;SDS011;63211;48.548;2.704;2023-09-12T05:52:09;4.47;;;2.40;;
74679;SDS011;63211;48.548;2.704;2023-09-12T05:54:36;5.80;;;2.47;;
74679;SDS011;63211;48.548;2.704;2023-09-12T05:57:02;6.47;;;3.08;;
74679;SDS011;63211;48.548;2.704;2023-09-12T05:59:30;4.38;;;2.47;;
74679;SDS011;63211;48.548;2.704;2023-09-12T06:01:56;6.55;;;2.95;;
74679;SDS011;63211;48.548;2.704;2023-09-12T06:04:24;5.38;;;3.03;;
74679;SDS011;63211;48.548;2.704;2023-09-12T06:06:51;5.25;;;3.08;;
74679;SDS011;63211;48.548;2.704;2023-09-12T06:09:17;20.65;;;5.18;;
74679;SDS011;63211;48.548;2.704;2023-09-12T06:11:44;13.68;;;5.70;;
74679;SDS011;63211;48.548;2.704;2023-09-12T06:14:10;18.00;;;4.95;;
74679;SDS011;63211;48.548;2.704;2023-09-12T06:16:37;8.45;;;3.30;;
74679;SDS011;63211;48.548;2.704;2023-09-12T06:19:03;11.43;;;3.50;;
74679;SDS011;63211;48.548;2.704;2023-09-12T06:21:31;8.43;;;3.35;;
74679;SDS011;63211;48.548;2.704;2023-09-12T06:24:08;10.07;;;3.50;;
74679;SDS011;63211;48.548;2.704;2023-09-12T06:26:36;7.82;;;3.53;;
74679;SDS011;63211;48.548;2.704;2023-09-12T06:29:03;7.22;;;3.60;;
74679;SDS011;63211;48.548;2.704;2023-09-12T06:31:30;5.72;;;2.42;;
74679;SDS011;63211;48.548;2.704;2023-09-12T06:33:56;7.82;;;2.75;;
74679;SDS011;63211;48.548;2.704;2023-09-12T06:36:24;6.18;;;2.92;;
74679;SDS011;63211;48.548;2.704;2023-09-12T06:38:52;6.07;;;2.53;;
74679;SDS011;63211;48.548;2.704;2023-09-12T06:41:19;5.15;;;2.83;;
74679;SDS011;63211;48.548;2.704;2023-09-12T06:43:45;7.78;;;3.10;;
74679;SDS011;63211;48.548;2.704;2023-09-12T06:46:12;6.97;;;3.28;;
74679;SDS011;63211;48.548;2.704;2023-09-12T06:48:39;6.75;;;3.65;;
74679;SDS011;63211;48.548;2.704;2023-09-12T06:51:09;8.95;;;3.03;;
74679;SDS011;63211;48.548;2.704;2023-09-12T06:53:36;6.63;;;3.53;;
74679;SDS011;63211;48.548;2.704;2023-09-12T06:56:04;5.97;;;2.75;;
74679;SDS011;63211;48.548;2.704;2023-09-12T06:58:30;8.35;;;4.20;;
74679;SDS011;63211;48.548;2.704;2023-09-12T07:01:00;6.10;;;3.72;;
74679;SDS011;63211;48.548;2.704;2023-09-12T07:03:28;6.00;;;3.45;;
74679;SDS011;63211;48.548;2.704;2023-09-12T07:05:55;5.97;;;3.15;;
74679;SDS011;63211;48.548;2.704;2023-09-12T07:08:22;6.95;;;3.65;;
74679;SDS011;63211;48.548;2.704;2023-09-12T07:10:48;7.30;;;3.30;;
74679;SDS011;63211;48.548;2.704;2023-09-12T07:13:16;7.68;;;4.25;;
74679;SDS011;63211;48.548;2.704;2023-09-12T07:15:43;8.85;;;4.40;;
74679;SDS011;63211;48.548;2.704;2023-09-12T07:18:10;8.82;;;4.72;;
74679;SDS011;63211;48.548;2.704;2023-09-12T07:20:37;8.38;;;3.85;;
74679;SDS011;63211;48.548;2.704;2023-09-12T07:23:03;9.27;;;4.78;;
74679;SDS011;63211;48.548;2.704;2023-09-12T07:25:30;9.82;;;4.57;;
74679;SDS011;63211;48.548;2.704;2023-09-12T07:27:56;9.43;;;4.35;;
74679;SDS011;63211;48.548;2.704;2023-09-12T07:30:24;7.50;;;4.07;;
74679;SDS011;63211;48.548;2.704;2023-09-12T07:32:51;7.45;;;4.18;;
74679;SDS011;63211;48.548;2.704;2023-09-12T07:35:17;7.28;;;4.13;;
74679;SDS011;63211;48.548;2.704;2023-09-12T07:37:45;7.43;;;4.53;;
74679;SDS011;63211;48.548;2.704;2023-09-12T07:40:12;8.07;;;4.03;;
74679;SDS011;63211;48.548;2.704;2023-09-12T07:42:38;7.35;;;4.05;;
74679;SDS011;63211;48.548;2.704;2023-09-12T07:45:05;9.32;;;5.05;;
74679;SDS011;63211;48.548;2.704;2023-09-12T07:47:34;8.43;;;5.10;;
74679;SDS011;63211;48.548;2.704;2023-09-12T07:50:01;9.73;;;5.32;;
74679;SDS011;63211;48.548;2.704;2023-09-12T07:52:28;10.07;;;5.10;;
74679;SDS011;63211;48.548;2.704;2023-09-12T07:54:58;12.10;;;4.95;;
74679;SDS011;63211;48.548;2.704;2023-09-12T07:57:25;10.15;;;5.65;;
74679;SDS011;63211;48.548;2.704;2023-09-12T07:59:52;9.23;;;5.22;;
74679;SDS011;63211;48.548;2.704;2023-09-12T08:02:18;9.07;;;5.03;;
74679;SDS011;63211;48.548;2.704;2023-09-12T08:04:48;9.05;;;4.55;;
74679;SDS011;63211;48.548;2.704;2023-09-12T08:07:16;12.07;;;5.47;;
74679;SDS011;63211;48.548;2.704;2023-09-12T08:09:49;8.55;;;4.70;;
74679;SDS011;63211;48.548;2.704;2023-09-12T08:12:18;9.57;;;4.97;;
74679;SDS011;63211;48.548;2.704;2023-09-12T08:14:46;11.93;;;5.07;;
74679;SDS011;63211;48.548;2.704;2023-09-12T08:17:12;8.80;;;5.15;;
74679;SDS011;63211;48.548;2.704;2023-09-12T08:19:40;8.27;;;4.70;;
74679;SDS011;63211;48.548;2.704;2023-09-12T08:22:08;10.07;;;5.30;;
74679;SDS011;63211;48.548;2.704;2023-09-12T08:24:36;10.10;;;5.25;;
74679;SDS011;63211;48.548;2.704;2023-09-12T08:27:04;11.05;;;5.38;;
74679;SDS011;63211;48.548;2.704;2023-09-12T08:29:31;10.07;;;5.25;;
74679;SDS011;63211;48.548;2.704;2023-09-12T08:31:58;10.13;;;5.55;;
74679;SDS011;63211;48.548;2.704;2023-09-12T08:34:26;8.98;;;4.85;;
74679;SDS011;63211;48.548;2.704;2023-09-12T08:36:52;7.13;;;4.30;;
74679;SDS011;63211;48.548;2.704;2023-09-12T08:39:24;9.00;;;4.78;;
74679;SDS011;63211;48.548;2.704;2023-09-12T08:41:51;10.68;;;4.90;;
74679;SDS011;63211;48.548;2.704;2023-09-12T08:44:19;8.15;;;4.57;;
74679;SDS011;63211;48.548;2.704;2023-09-12T08:46:46;10.40;;;5.60;;
74679;SDS011;63211;48.548;2.704;2023-09-12T08:49:13;10.10;;;4.88;;
74679;SDS011;63211;48.548;2.704;2023-09-12T08:51:40;7.97;;;4.97;;
74679;SDS011;63211;48.548;2.704;2023-09-12T08:54:07;9.32;;;4.97;;
74679;SDS011;63211;48.548;2.704;2023-09-12T08:56:36;11.25;;;4.95;;
74679;SDS011;63211;48.548;2.704;2023-09-12T08:59:06;11.38;;;5.60;;
74679;SDS011;63211;48.548;2.704;2023-09-12T09:01:33;8.98;;;4.80;;
74679;SDS011;63211;48.548;2.704;2023-09-12T09:04:01;9.48;;;5.68;;
74679;SDS011;63211;48.548;2.704;2023-09-12T09:06:28;9.77;;;5.35;;
74679;SDS011;63211;48.548;2.704;2023-09-12T09:08:57;9.68;;;5.40;;
74679;SDS011;63211;48.548;2.704;2023-09-12T09:11:24;9.20;;;5.05;;
74679;SDS011;63211;48.548;2.704;2023-09-12T09:13:54;9.35;;;5.28;;
74679;SDS011;63211;48.548;2.704;2023-09-12T09:16:21;11.60;;;5.13;;
74679;SDS011;63211;48.548;2.704;2023-09-12T09:18:49;11.57;;;4.97;;
74679;SDS011;63211;48.548;2.704;2023-09-12T09:21:17;10.02;;;5.22;;
74679;SDS011;63211;48.548;2.704;2023-09-12T09:23:45;8.60;;;5.13;;
74679;SDS011;63211;48.548;2.704;2023-09-12T09:26:12;9.90;;;5.93;;
74679;SDS011;63211;48.548;2.704;2023-09-12T09:28:39;9.38;;;5.40;;
74679;SDS011;63211;48.548;2.704;2023-09-12T09:31:10;9.23;;;5.55;;
74679;SDS011;63211;48.548;2.704;2023-09-12T09:33:39;10.48;;;6.45;;
74679;SDS011;63211;48.548;2.704;2023-09-12T09:36:07;9.77;;;5.72;;
74679;SDS011;63211;48.548;2.704;2023-09-12T09:38:34;10.70;;;5.70;;
74679;SDS011;63211;48.548;2.704;2023-09-12T09:41:03;10.98;;;5.80;;
74679;SDS011;63211;48.548;2.704;2023-09-12T09:43:30;11.32;;;5.57;;
74679;SDS011;63211;48.548;2.704;2023-09-12T09:45:58;10.75;;;6.18;;
74679;SDS011;63211;48.548;2.704;2023-09-12T09:48:26;10.27;;;5.38;;
74679;SDS011;63211;48.548;2.704;2023-09-12T09:50:53;9.70;;;5.50;;
74679;SDS011;63211;48.548;2.704;2023-09-12T09:53:27;10.63;;;5.68;;
74679;SDS011;63211;48.548;2.704;2023-09-12T09:56:06;11.45;;;6.18;;
74679;SDS011;63211;48.548;2.704;2023-09-12T09:58:34;11.32;;;6.13;;
74679;SDS011;63211;48.548;2.704;2023-09-12T10:01:01;10.32;;;5.72;;
74679;SDS011;63211;48.548;2.704;2023-09-12T10:03:30;13.10;;;6.10;;
74679;SDS011;63211;48.548;2.704;2023-09-12T10:06:00;11.98;;;6.38;;
74679;SDS011;63211;48.548;2.704;2023-09-12T10:08:30;12.10;;;5.20;;
74679;SDS011;63211;48.548;2.704;2023-09-12T10:10:58;11.18;;;6.25;;
74679;SDS011;63211;48.548;2.704;2023-09-12T10:13:25;11.55;;;5.90;;
74679;SDS011;63211;48.548;2.704;2023-09-12T10:15:57;12.15;;;5.97;;
74679;SDS011;63211;48.548;2.704;2023-09-12T10:18:26;12.32;;;5.88;;
74679;SDS011;63211;48.548;2.704;2023-09-12T10:21:03;13.88;;;6.35;;
74679;SDS011;63211;48.548;2.704;2023-09-12T10:23:34;10.30;;;6.13;;
74679;SDS011;63211;48.548;2.704;2023-09-12T10:26:07;12.38;;;6.18;;
74679;SDS011;63211;48.548;2.704;2023-09-12T10:28:36;9.48;;;6.25;;
74679;SDS011;63211;48.548;2.704;2023-09-12T10:31:05;11.40;;;5.55;;
74679;SDS011;63211;48.548;2.704;2023-09-12T10:33:34;10.23;;;6.40;;
74679;SDS011;63211;48.548;2.704;2023-09-12T10:36:03;11.85;;;5.50;;
74679;SDS011;63211;48.548;2.704;2023-09-12T10:38:32;9.85;;;5.57;;
74679;SDS011;63211;48.548;2.704;2023-09-12T10:41:02;13.50;;;6.35;;
74679;SDS011;63211;48.548;2.704;2023-09-12T10:43:30;11.07;;;6.20;;
74679;SDS011;63211;48.548;2.704;2023-09-12T10:46:00;9.48;;;5.80;;
74679;SDS011;63211;48.548;2.704;2023-09-12T10:48:28;9.45;;;5.50;;
74679;SDS011;63211;48.548;2.704;2023-09-12T10:50:56;9.20;;;5.47;;
74679;SDS011;63211;48.548;2.704;2023-09-12T10:53:26;8.70;;;5.10;;
74679;SDS011;63211;48.548;2.704;2023-09-12T10:56:00;11.07;;;5.88;;
74679;SDS011;63211;48.548;2.704;2023-09-12T10:58:28;12.82;;;6.15;;
74679;SDS011;63211;48.548;2.704;2023-09-12T11:03:50;9.15;;;5.07;;
74679;SDS011;63211;48.548;2.704;2023-09-12T11:06:21;11.05;;;5.28;;
74679;SDS011;63211;48.548;2.704;2023-09-12T11:11:47;7.57;;;4.47;;
74679;SDS011;63211;48.548;2.704;2023-09-12T11:14:15;9.27;;;4.85;;
74679;SDS011;63211;48.548;2.704;2023-09-12T11:16:42;9.55;;;4.90;;
74679;SDS011;63211;48.548;2.704;2023-09-12T11:19:13;10.65;;;5.68;;
74679;SDS011;63211;48.548;2.704;2023-09-12T11:21:41;10.75;;;4.93;;
74679;SDS011;63211;48.548;2.704;2023-09-12T11:24:08;8.10;;;5.53;;
74679;SDS011;63211;48.548;2.704;2023-09-12T11:26:36;8.90;;;4.85;;
74679;SDS011;63211;48.548;2.704;2023-09-12T11:29:19;8.00;;;4.38;;
74679;SDS011;63211;48.548;2.704;2023-09-12T11:31:51;8.07;;;4.55;;
74679;SDS011;63211;48.548;2.704;2023-09-12T11:34:22;8.80;;;4.78;;
74679;SDS011;63211;48.548;2.704;2023-09-12T11:36:51;10.40;;;4.72;;
74679;SDS011;63211;48.548;2.704;2023-09-12T11:39:24;7.50;;;4.43;;
74679;SDS011;63211;48.548;2.704;2023-09-12T11:41:53;9.23;;;5.32;;
74679;SDS011;63211;48.548;2.704;2023-09-12T11:44:21;8.98;;;4.70;;
74679;SDS011;63211;48.548;2.704;2023-09-12T11:46:48;8.65;;;4.60;;
74679;SDS011;63211;48.548;2.704;2023-09-12T11:49:16;7.85;;;4.15;;
74679;SDS011;63211;48.548;2.704;2023-09-12T11:51:47;9.13;;;5.07;;
74679;SDS011;63211;48.548;2.704;2023-09-12T11:54:15;11.43;;;4.82;;
74679;SDS011;63211;48.548;2.704;2023-09-12T11:56:42;9.35;;;4.40;;
74679;SDS011;63211;48.548;2.704;2023-09-12T11:59:10;8.48;;;4.38;;
74679;SDS011;63211;48.548;2.704;2023-09-12T12:01:36;7.95;;;4.50;;
74679;SDS011;63211;48.548;2.704;2023-09-12T12:04:03;9.00;;;4.78;;
74679;SDS011;63211;48.548;2.704;2023-09-12T12:06:31;7.47;;;4.75;;
74679;SDS011;63211;48.548;2.704;2023-09-12T12:09:00;8.18;;;4.55;;
74679;SDS011;63211;48.548;2.704;2023-09-12T12:11:29;8.63;;;4.25;;
74679;SDS011;63211;48.548;2.704;2023-09-12T12:13:56;8.48;;;4.45;;
74679;SDS011;63211;48.548;2.704;2023-09-12T12:16:26;7.60;;;4.15;;
74679;SDS011;63211;48.548;2.704;2023-09-12T12:18:52;10.27;;;4.85;;
74679;SDS011;63211;48.548;2.704;2023-09-12T12:21:21;8.00;;;4.22;;
74679;SDS011;63211;48.548;2.704;2023-09-12T12:23:56;7.80;;;3.50;;
74679;SDS011;63211;48.548;2.704;2023-09-12T12:26:24;6.65;;;3.88;;
74679;SDS011;63211;48.548;2.704;2023-09-12T12:28:51;6.95;;;4.10;;
74679;SDS011;63211;48.548;2.704;2023-09-12T12:31:18;10.63;;;5.07;;
74679;SDS011;63211;48.548;2.704;2023-09-12T12:33:48;7.63;;;4.22;;
74679;SDS011;63211;48.548;2.704;2023-09-12T12:36:15;7.93;;;4.82;;
74679;SDS011;63211;48.548;2.704;2023-09-12T12:38:42;6.70;;;3.80;;
74679;SDS011;63211;48.548;2.704;2023-09-12T12:41:11;7.28;;;4.80;;
74679;SDS011;63211;48.548;2.704;2023-09-12T12:43:39;6.90;;;4.43;;
74679;SDS011;63211;48.548;2.704;2023-09-12T12:46:09;6.38;;;4.45;;
74679;SDS011;63211;48.548;2.704;2023-09-12T12:48:37;9.48;;;4.40;;
74679;SDS011;63211;48.548;2.704;2023-09-12T12:51:16;7.65;;;4.00;;
74679;SDS011;63211;48.548;2.704;2023-09-12T12:53:45;11.20;;;4.60;;
74679;SDS011;63211;48.548;2.704;2023-09-12T12:56:14;7.50;;;4.20;;
74679;SDS011;63211;48.548;2.704;2023-09-12T12:58:47;6.53;;;4.03;;
74679;SDS011;63211;48.548;2.704;2023-09-12T13:01:14;7.50;;;4.53;;
74679;SDS011;63211;48.548;2.704;2023-09-12T13:03:41;7.70;;;4.35;;
74679;SDS011;63211;48.548;2.704;2023-09-12T13:06:07;6.93;;;4.03;;
74679;SDS011;63211;48.548;2.704;2023-09-12T13:08:40;7.07;;;4.30;;
74679;SDS011;63211;48.548;2.704;2023-09-12T13:11:08;7.85;;;4.35;;
74679;SDS011;63211;48.548;2.704;2023-09-12T13:13:35;7.68;;;4.38;;
74679;SDS011;63211;48.548;2.704;2023-09-12T13:16:02;7.50;;;4.07;;
74679;SDS011;63211;48.548;2.704;2023-09-12T13:18:30;9.45;;;4.85;;
74679;SDS011;63211;48.548;2.704;2023-09-12T13:20:57;8.90;;;5.00;;
74679;SDS011;63211;48.548;2.704;2023-09-12T13:23:23;7.47;;;4.10;;
74679;SDS011;63211;48.548;2.704;2023-09-12T13:25:51;10.63;;;5.15;;
74679;SDS011;63211;48.548;2.704;2023-09-12T13:28:18;8.45;;;4.72;;
74679;SDS011;63211;48.548;2.704;2023-09-12T13:30:45;8.88;;;4.78;;
74679;SDS011;63211;48.548;2.704;2023-09-12T13:33:11;8.02;;;4.45;;
74679;SDS011;63211;48.548;2.704;2023-09-12T13:35:40;7.18;;;4.82;;
74679;SDS011;63211;48.548;2.704;2023-09-12T13:38:07;8.05;;;4.63;;
74679;SDS011;63211;48.548;2.704;2023-09-12T13:40:35;9.13;;;4.90;;
74679;SDS011;63211;48.548;2.704;2023-09-12T13:43:04;8.80;;;4.80;;
74679;SDS011;63211;48.548;2.704;2023-09-12T13:45:31;8.88;;;6.03;;
74679;SDS011;63211;48.548;2.704;2023-09-12T13:47:58;8.90;;;4.35;;
74679;SDS011;63211;48.548;2.704;2023-09-12T13:50:26;10.68;;;4.97;;
74679;SDS011;63211;48.548;2.704;2023-09-12T13:52:53;8.57;;;4.68;;
74679;SDS011;63211;48.548;2.704;2023-09-12T13:55:20;9.52;;;4.53;;
74679;SDS011;63211;48.548;2.704;2023-09-12T13:57:47;8.73;;;5.38;;
74679;SDS011;63211;48.548;2.704;2023-09-12T14:00:15;8.50;;;4.88;;
74679;SDS011;63211;48.548;2.704;2023-09-12T14:02:42;9.45;;;4.68;;
74679;SDS011;63211;48.548;2.704;2023-09-12T14:05:09;8.20;;;4.97;;
74679;SDS011;63211;48.548;2.704;2023-09-12T14:07:37;8.15;;;5.00;;
74679;SDS011;63211;48.548;2.704;2023-09-12T14:10:04;8.18;;;4.80;;
74679;SDS011;63211;48.548;2.704;2023-09-12T14:12:32;8.57;;;4.78;;
74679;SDS011;63211;48.548;2.704;2023-09-12T14:14:58;8.85;;;5.07;;
74679;SDS011;63211;48.548;2.704;2023-09-12T14:17:26;13.23;;;4.70;;
74679;SDS011;63211;48.548;2.704;2023-09-12T14:19:53;10.65;;;5.10;;
74679;SDS011;63211;48.548;2.704;2023-09-12T14:22:21;10.57;;;5.22;;
74679;SDS011;63211;48.548;2.704;2023-09-12T14:24:47;10.32;;;5.75;;
74679;SDS011;63211;48.548;2.704;2023-09-12T14:27:14;8.55;;;5.13;;
74679;SDS011;63211;48.548;2.704;2023-09-12T14:29:40;8.43;;;5.22;;
74679;SDS011;63211;48.548;2.704;2023-09-12T14:32:10;9.60;;;5.38;;
74679;SDS011;63211;48.548;2.704;2023-09-12T14:34:38;9.60;;;5.60;;
74679;SDS011;63211;48.548;2.704;2023-09-12T14:37:05;9.52;;;5.47;;
74679;SDS011;63211;48.548;2.704;2023-09-12T14:39:31;8.98;;;4.95;;
74679;SDS011;63211;48.548;2.704;2023-09-12T14:41:58;9.63;;;6.38;;
74679;SDS011;63211;48.548;2.704;2023-09-12T14:44:27;11.20;;;6.47;;
74679;SDS011;63211;48.548;2.704;2023-09-12T14:46:57;13.80;;;6.55;;
74679;SDS011;63211;48.548;2.704;2023-09-12T14:49:24;11.43;;;5.97;;
74679;SDS011;63211;48.548;2.704;2023-09-12T14:51:52;12.68;;;6.20;;
74679;SDS011;63211;48.548;2.704;2023-09-12T14:54:19;9.48;;;5.43;;
74679;SDS011;63211;48.548;2.704;2023-09-12T14:56:47;11.95;;;5.78;;